sensor_id;sensor_type;location;lat;lon;timestamp;P1;durP1;ratioP1;P2;durP2;ratioP2
5543;SDS011;2795;47.652;13.128;2023-03-23T00:02:27;14.93;;;5.20;;
5543;SDS011;2795;47.652;13.128;2023-03-23T00:04:57;17.33;;;5.17;;
5543;SDS011;2795;47.652;13.128;2023-03-23T00:07:25;9.07;;;3.90;;
5543;SDS011;2795;47.652;13.128;2023-03-23T00:09:52;14.10;;;5.10;;
5543;SDS011;2795;47.652;13.128;2023-03-23T00:12:22;15.00;;;5.10;;
5543;SDS011;2795;47.652;13.128;2023-03-23T00:14:58;21.23;;;4.83;;
5543;SDS011;2795;47.652;13.128;2023-03-23T00:17:28;14.43;;;4.47;;
5543;SDS011;2795;47.652;13.128;2023-03-23T00:19:55;14.13;;;4.70;;
5543;SDS011;2795;47.652;13.128;2023-03-23T00:22:20;17.13;;;4.57;;
5543;SDS011;2795;47.652;13.128;2023-03-23T00:24:47;13.03;;;4.60;;
5543;SDS011;2795;47.652;13.128;2023-03-23T00:27:13;10.17;;;4.30;;
5543;SDS011;2795;47.652;13.128;2023-03-23T00:29:39;10.73;;;4.37;;
5543;SDS011;2795;47.652;13.128;2023-03-23T00:32:06;11.33;;;4.27;;
5543;SDS011;2795;47.652;13.128;2023-03-23T00:34:31;12.57;;;4.23;;
5543;SDS011;2795;47.652;13.128;2023-03-23T00:36:59;16.37;;;4.33;;
5543;SDS011;2795;47.652;13.128;2023-03-23T00:39:25;11.90;;;4.10;;
5543;SDS011;2795;47.652;13.128;2023-03-23T00:41:52;25.30;;;6.07;;
5543;SDS011;2795;47.652;13.128;2023-03-23T00:44:19;15.33;;;3.90;;
5543;SDS011;2795;47.652;13.128;2023-03-23T00:46:49;19.00;;;4.50;;
5543;SDS011;2795;47.652;13.128;2023-03-23T00:49:16;10.60;;;3.80;;
5543;SDS011;2795;47.652;13.128;2023-03-23T00:51:43;11.50;;;4.20;;
5543;SDS011;2795;47.652;13.128;2023-03-23T00:54:09;10.63;;;3.83;;
5543;SDS011;2795;47.652;13.128;2023-03-23T00:56:35;15.57;;;4.60;;
5543;SDS011;2795;47.652;13.128;2023-03-23T00:59:01;13.13;;;4.23;;
5543;SDS011;2795;47.652;13.128;2023-03-23T01:01:27;12.20;;;3.90;;
5543;SDS011;2795;47.652;13.128;2023-03-23T01:03:52;13.27;;;4.13;;
5543;SDS011;2795;47.652;13.128;2023-03-23T01:06:28;11.33;;;4.57;;
5543;SDS011;2795;47.652;13.128;2023-03-23T01:08:57;12.77;;;4.40;;
5543;SDS011;2795;47.652;13.128;2023-03-23T01:11:24;11.40;;;4.30;;
5543;SDS011;2795;47.652;13.128;2023-03-23T01:13:50;10.93;;;4.13;;
5543;SDS011;2795;47.652;13.128;2023-03-23T01:16:16;12.90;;;4.30;;
5543;SDS011;2795;47.652;13.128;2023-03-23T01:18:41;10.77;;;4.20;;
5543;SDS011;2795;47.652;13.128;2023-03-23T01:21:10;15.27;;;4.30;;
5543;SDS011;2795;47.652;13.128;2023-03-23T01:23:38;11.07;;;4.30;;
5543;SDS011;2795;47.652;13.128;2023-03-23T01:26:07;11.83;;;5.00;;
5543;SDS011;2795;47.652;13.128;2023-03-23T01:28:38;11.67;;;4.43;;
5543;SDS011;2795;47.652;13.128;2023-03-23T01:31:04;11.30;;;4.30;;
5543;SDS011;2795;47.652;13.128;2023-03-23T01:33:32;12.70;;;4.33;;
5543;SDS011;2795;47.652;13.128;2023-03-23T01:35:58;16.40;;;5.00;;
5543;SDS011;2795;47.652;13.128;2023-03-23T01:38:27;9.63;;;4.47;;
5543;SDS011;2795;47.652;13.128;2023-03-23T01:40:53;12.53;;;4.30;;
5543;SDS011;2795;47.652;13.128;2023-03-23T01:43:18;9.00;;;4.33;;
5543;SDS011;2795;47.652;13.128;2023-03-23T01:45:44;9.70;;;4.20;;
5543;SDS011;2795;47.652;13.128;2023-03-23T01:48:13;13.87;;;4.63;;
5543;SDS011;2795;47.652;13.128;2023-03-23T01:51:10;11.03;;;3.80;;
5543;SDS011;2795;47.652;13.128;2023-03-23T01:53:38;12.37;;;3.97;;
5543;SDS011;2795;47.652;13.128;2023-03-23T01:56:07;9.87;;;3.67;;
5543;SDS011;2795;47.652;13.128;2023-03-23T01:58:36;11.10;;;4.17;;
5543;SDS011;2795;47.652;13.128;2023-03-23T02:01:04;13.97;;;4.10;;
5543;SDS011;2795;47.652;13.128;2023-03-23T02:03:31;8.50;;;3.20;;
5543;SDS011;2795;47.652;13.128;2023-03-23T02:05:58;18.40;;;4.43;;
5543;SDS011;2795;47.652;13.128;2023-03-23T02:08:24;9.50;;;3.67;;
5543;SDS011;2795;47.652;13.128;2023-03-23T02:10:53;10.10;;;3.60;;
5543;SDS011;2795;47.652;13.128;2023-03-23T02:13:19;4.97;;;2.93;;
5543;SDS011;2795;47.652;13.128;2023-03-23T02:27:03;13.40;;;4.30;;
5543;SDS011;2795;47.652;13.128;2023-03-23T02:35:23;14.47;;;3.80;;
5543;SDS011;2795;47.652;13.128;2023-03-23T02:37:57;17.87;;;4.10;;
5543;SDS011;2795;47.652;13.128;2023-03-23T02:40:25;12.90;;;3.60;;
5543;SDS011;2795;47.652;13.128;2023-03-23T02:42:55;14.90;;;4.00;;
5543;SDS011;2795;47.652;13.128;2023-03-23T02:45:21;8.50;;;3.57;;
5543;SDS011;2795;47.652;13.128;2023-03-23T02:47:48;15.07;;;4.20;;
5543;SDS011;2795;47.652;13.128;2023-03-23T02:50:15;8.20;;;3.10;;
5543;SDS011;2795;47.652;13.128;2023-03-23T02:52:41;7.67;;;3.47;;
5543;SDS011;2795;47.652;13.128;2023-03-23T02:55:08;12.80;;;3.43;;
5543;SDS011;2795;47.652;13.128;2023-03-23T02:57:36;12.10;;;3.77;;
5543;SDS011;2795;47.652;13.128;2023-03-23T03:00:07;8.80;;;3.53;;
5543;SDS011;2795;47.652;13.128;2023-03-23T03:02:36;13.63;;;3.90;;
5543;SDS011;2795;47.652;13.128;2023-03-23T03:05:13;11.57;;;3.70;;
5543;SDS011;2795;47.652;13.128;2023-03-23T03:19:03;9.13;;;4.10;;
5543;SDS011;2795;47.652;13.128;2023-03-23T03:21:36;15.13;;;4.40;;
5543;SDS011;2795;47.652;13.128;2023-03-23T03:24:04;12.33;;;4.13;;
5543;SDS011;2795;47.652;13.128;2023-03-23T03:26:32;7.30;;;3.20;;
5543;SDS011;2795;47.652;13.128;2023-03-23T03:28:59;13.00;;;3.77;;
5543;SDS011;2795;47.652;13.128;2023-03-23T03:31:29;10.63;;;3.70;;
5543;SDS011;2795;47.652;13.128;2023-03-23T03:34:01;8.00;;;2.97;;
5543;SDS011;2795;47.652;13.128;2023-03-23T03:36:30;9.70;;;3.57;;
5543;SDS011;2795;47.652;13.128;2023-03-23T03:39:08;15.33;;;4.37;;
5543;SDS011;2795;47.652;13.128;2023-03-23T03:41:35;12.50;;;3.83;;
5543;SDS011;2795;47.652;13.128;2023-03-23T03:44:02;18.83;;;3.60;;
5543;SDS011;2795;47.652;13.128;2023-03-23T03:46:28;7.27;;;3.33;;
5543;SDS011;2795;47.652;13.128;2023-03-23T03:48:56;10.73;;;3.30;;
5543;SDS011;2795;47.652;13.128;2023-03-23T03:51:22;8.20;;;2.97;;
5543;SDS011;2795;47.652;13.128;2023-03-23T03:53:48;13.40;;;3.13;;
5543;SDS011;2795;47.652;13.128;2023-03-23T03:56:14;13.03;;;4.03;;
5543;SDS011;2795;47.652;13.128;2023-03-23T03:58:39;15.13;;;3.87;;
5543;SDS011;2795;47.652;13.128;2023-03-23T04:01:07;9.80;;;3.60;;
5543;SDS011;2795;47.652;13.128;2023-03-23T04:03:35;7.80;;;3.37;;
5543;SDS011;2795;47.652;13.128;2023-03-23T04:06:01;8.00;;;3.57;;
5543;SDS011;2795;47.652;13.128;2023-03-23T04:08:27;9.80;;;4.07;;
5543;SDS011;2795;47.652;13.128;2023-03-23T04:10:53;40.43;;;13.03;;
5543;SDS011;2795;47.652;13.128;2023-03-23T04:13:20;32.83;;;11.20;;
5543;SDS011;2795;47.652;13.128;2023-03-23T04:15:46;9.97;;;4.43;;
5543;SDS011;2795;47.652;13.128;2023-03-23T04:18:13;11.90;;;3.73;;
5543;SDS011;2795;47.652;13.128;2023-03-23T04:20:41;9.23;;;3.50;;
5543;SDS011;2795;47.652;13.128;2023-03-23T04:23:07;6.90;;;3.13;;
5543;SDS011;2795;47.652;13.128;2023-03-23T04:25:33;16.43;;;4.20;;
5543;SDS011;2795;47.652;13.128;2023-03-23T04:28:00;9.23;;;3.10;;
5543;SDS011;2795;47.652;13.128;2023-03-23T04:30:26;7.90;;;2.80;;
5543;SDS011;2795;47.652;13.128;2023-03-23T04:32:52;10.43;;;3.40;;
5543;SDS011;2795;47.652;13.128;2023-03-23T04:35:21;9.43;;;3.43;;
5543;SDS011;2795;47.652;13.128;2023-03-23T04:37:49;12.00;;;4.00;;
5543;SDS011;2795;47.652;13.128;2023-03-23T04:40:16;10.53;;;3.53;;
5543;SDS011;2795;47.652;13.128;2023-03-23T04:42:44;8.50;;;3.00;;
5543;SDS011;2795;47.652;13.128;2023-03-23T04:45:15;12.70;;;3.40;;
5543;SDS011;2795;47.652;13.128;2023-03-23T04:47:47;10.13;;;3.67;;
5543;SDS011;2795;47.652;13.128;2023-03-23T04:50:18;7.70;;;3.60;;
5543;SDS011;2795;47.652;13.128;2023-03-23T04:52:45;8.40;;;4.47;;
5543;SDS011;2795;47.652;13.128;2023-03-23T04:55:11;17.50;;;6.27;;
5543;SDS011;2795;47.652;13.128;2023-03-23T04:57:38;15.07;;;5.20;;
5543;SDS011;2795;47.652;13.128;2023-03-23T05:00:03;9.00;;;4.07;;
5543;SDS011;2795;47.652;13.128;2023-03-23T05:02:37;11.00;;;3.80;;
5543;SDS011;2795;47.652;13.128;2023-03-23T05:05:07;9.73;;;3.33;;
5543;SDS011;2795;47.652;13.128;2023-03-23T05:07:35;13.47;;;4.43;;
5543;SDS011;2795;47.652;13.128;2023-03-23T05:10:02;9.60;;;3.40;;
5543;SDS011;2795;47.652;13.128;2023-03-23T05:12:28;18.43;;;4.27;;
5543;SDS011;2795;47.652;13.128;2023-03-23T05:14:53;10.93;;;3.40;;
5543;SDS011;2795;47.652;13.128;2023-03-23T05:17:19;11.60;;;3.40;;
5543;SDS011;2795;47.652;13.128;2023-03-23T05:19:44;12.93;;;3.80;;
5543;SDS011;2795;47.652;13.128;2023-03-23T05:22:15;14.17;;;4.00;;
5543;SDS011;2795;47.652;13.128;2023-03-23T05:24:41;11.57;;;4.00;;
5543;SDS011;2795;47.652;13.128;2023-03-23T05:27:08;10.10;;;3.80;;
5543;SDS011;2795;47.652;13.128;2023-03-23T05:29:34;11.17;;;3.93;;
5543;SDS011;2795;47.652;13.128;2023-03-23T05:32:02;10.70;;;3.67;;
5543;SDS011;2795;47.652;13.128;2023-03-23T05:34:29;9.80;;;3.53;;
5543;SDS011;2795;47.652;13.128;2023-03-23T05:36:57;11.90;;;4.13;;
5543;SDS011;2795;47.652;13.128;2023-03-23T05:39:24;7.97;;;3.50;;
5543;SDS011;2795;47.652;13.128;2023-03-23T05:41:50;7.03;;;3.53;;
5543;SDS011;2795;47.652;13.128;2023-03-23T05:44:15;12.90;;;3.73;;
5543;SDS011;2795;47.652;13.128;2023-03-23T05:46:41;12.20;;;4.37;;
5543;SDS011;2795;47.652;13.128;2023-03-23T05:49:07;16.97;;;4.40;;
5543;SDS011;2795;47.652;13.128;2023-03-23T05:51:32;10.63;;;4.07;;
5543;SDS011;2795;47.652;13.128;2023-03-23T05:53:58;9.87;;;4.03;;
5543;SDS011;2795;47.652;13.128;2023-03-23T05:56:24;12.10;;;4.10;;
5543;SDS011;2795;47.652;13.128;2023-03-23T05:58:50;7.50;;;3.57;;
5543;SDS011;2795;47.652;13.128;2023-03-23T06:01:15;17.73;;;4.00;;
5543;SDS011;2795;47.652;13.128;2023-03-23T06:03:41;21.73;;;4.40;;
5543;SDS011;2795;47.652;13.128;2023-03-23T06:06:09;8.63;;;3.33;;
5543;SDS011;2795;47.652;13.128;2023-03-23T06:08:36;12.27;;;4.40;;
5543;SDS011;2795;47.652;13.128;2023-03-23T06:11:02;11.10;;;5.00;;
5543;SDS011;2795;47.652;13.128;2023-03-23T06:13:28;8.50;;;4.40;;
5543;SDS011;2795;47.652;13.128;2023-03-23T06:15:54;11.00;;;3.93;;
5543;SDS011;2795;47.652;13.128;2023-03-23T06:18:24;9.03;;;3.73;;
5543;SDS011;2795;47.652;13.128;2023-03-23T06:20:50;6.03;;;3.40;;
5543;SDS011;2795;47.652;13.128;2023-03-23T06:23:16;9.57;;;3.80;;
5543;SDS011;2795;47.652;13.128;2023-03-23T06:25:41;9.23;;;3.60;;
5543;SDS011;2795;47.652;13.128;2023-03-23T06:28:07;12.17;;;3.90;;
5543;SDS011;2795;47.652;13.128;2023-03-23T06:30:34;10.70;;;4.00;;
5543;SDS011;2795;47.652;13.128;2023-03-23T06:33:00;11.53;;;4.03;;
5543;SDS011;2795;47.652;13.128;2023-03-23T06:35:27;16.03;;;4.10;;
5543;SDS011;2795;47.652;13.128;2023-03-23T06:37:52;14.00;;;4.40;;
5543;SDS011;2795;47.652;13.128;2023-03-23T06:40:19;12.70;;;4.30;;
5543;SDS011;2795;47.652;13.128;2023-03-23T06:42:44;17.53;;;4.90;;
5543;SDS011;2795;47.652;13.128;2023-03-23T06:45:10;16.07;;;4.97;;
5543;SDS011;2795;47.652;13.128;2023-03-23T06:47:36;8.90;;;3.63;;
5543;SDS011;2795;47.652;13.128;2023-03-23T06:50:01;6.70;;;3.70;;
5543;SDS011;2795;47.652;13.128;2023-03-23T06:52:27;12.23;;;4.03;;
5543;SDS011;2795;47.652;13.128;2023-03-23T06:54:52;13.43;;;4.67;;
5543;SDS011;2795;47.652;13.128;2023-03-23T06:57:18;11.07;;;3.70;;
5543;SDS011;2795;47.652;13.128;2023-03-23T06:59:44;10.17;;;3.90;;
5543;SDS011;2795;47.652;13.128;2023-03-23T07:02:11;14.83;;;4.30;;
5543;SDS011;2795;47.652;13.128;2023-03-23T07:04:39;9.30;;;3.87;;
5543;SDS011;2795;47.652;13.128;2023-03-23T07:07:05;10.93;;;4.00;;
5543;SDS011;2795;47.652;13.128;2023-03-23T07:09:32;9.10;;;3.87;;
5543;SDS011;2795;47.652;13.128;2023-03-23T07:11:58;9.77;;;4.00;;
5543;SDS011;2795;47.652;13.128;2023-03-23T07:14:23;12.40;;;4.03;;
5543;SDS011;2795;47.652;13.128;2023-03-23T07:16:49;13.77;;;4.67;;
5543;SDS011;2795;47.652;13.128;2023-03-23T07:19:15;14.53;;;4.67;;
5543;SDS011;2795;47.652;13.128;2023-03-23T07:21:41;15.97;;;4.20;;
5543;SDS011;2795;47.652;13.128;2023-03-23T07:24:09;11.67;;;4.20;;
5543;SDS011;2795;47.652;13.128;2023-03-23T07:26:37;14.37;;;4.27;;
5543;SDS011;2795;47.652;13.128;2023-03-23T07:29:03;9.77;;;3.90;;
5543;SDS011;2795;47.652;13.128;2023-03-23T07:31:28;9.90;;;3.80;;
5543;SDS011;2795;47.652;13.128;2023-03-23T07:33:54;10.77;;;4.17;;
5543;SDS011;2795;47.652;13.128;2023-03-23T07:36:19;11.50;;;4.27;;
5543;SDS011;2795;47.652;13.128;2023-03-23T07:38:45;14.20;;;4.70;;
5543;SDS011;2795;47.652;13.128;2023-03-23T07:41:11;11.87;;;3.73;;
5543;SDS011;2795;47.652;13.128;2023-03-23T07:43:36;15.53;;;4.57;;
5543;SDS011;2795;47.652;13.128;2023-03-23T07:46:02;9.33;;;4.17;;
5543;SDS011;2795;47.652;13.128;2023-03-23T07:48:27;5.87;;;3.57;;
5543;SDS011;2795;47.652;13.128;2023-03-23T07:50:53;12.03;;;4.30;;
5543;SDS011;2795;47.652;13.128;2023-03-23T07:53:18;9.50;;;3.80;;
5543;SDS011;2795;47.652;13.128;2023-03-23T07:55:44;10.90;;;4.13;;
5543;SDS011;2795;47.652;13.128;2023-03-23T07:58:09;7.70;;;3.40;;
5543;SDS011;2795;47.652;13.128;2023-03-23T08:00:35;11.90;;;3.80;;
5543;SDS011;2795;47.652;13.128;2023-03-23T08:03:00;9.93;;;3.53;;
5543;SDS011;2795;47.652;13.128;2023-03-23T08:05:27;7.97;;;3.40;;
5543;SDS011;2795;47.652;13.128;2023-03-23T08:07:53;11.83;;;4.40;;
5543;SDS011;2795;47.652;13.128;2023-03-23T08:10:20;18.47;;;4.47;;
5543;SDS011;2795;47.652;13.128;2023-03-23T08:12:49;17.63;;;4.50;;
5543;SDS011;2795;47.652;13.128;2023-03-23T08:15:16;11.53;;;4.30;;
5543;SDS011;2795;47.652;13.128;2023-03-23T08:17:42;10.53;;;3.67;;
5543;SDS011;2795;47.652;13.128;2023-03-23T08:20:08;8.33;;;3.80;;
5543;SDS011;2795;47.652;13.128;2023-03-23T08:22:37;7.20;;;3.37;;
5543;SDS011;2795;47.652;13.128;2023-03-23T08:25:05;12.03;;;3.77;;
5543;SDS011;2795;47.652;13.128;2023-03-23T08:27:32;9.23;;;3.47;;
5543;SDS011;2795;47.652;13.128;2023-03-23T08:29:58;9.07;;;3.93;;
5543;SDS011;2795;47.652;13.128;2023-03-23T08:32:24;9.23;;;3.77;;
5543;SDS011;2795;47.652;13.128;2023-03-23T08:34:50;10.20;;;4.07;;
5543;SDS011;2795;47.652;13.128;2023-03-23T08:37:16;11.30;;;4.07;;
5543;SDS011;2795;47.652;13.128;2023-03-23T08:39:42;13.97;;;4.40;;
5543;SDS011;2795;47.652;13.128;2023-03-23T08:42:09;17.40;;;3.87;;
5543;SDS011;2795;47.652;13.128;2023-03-23T08:44:35;12.90;;;4.30;;
5543;SDS011;2795;47.652;13.128;2023-03-23T08:47:01;16.13;;;4.50;;
5543;SDS011;2795;47.652;13.128;2023-03-23T08:49:29;11.87;;;4.23;;
5543;SDS011;2795;47.652;13.128;2023-03-23T08:51:58;14.37;;;6.70;;
5543;SDS011;2795;47.652;13.128;2023-03-23T08:54:24;9.97;;;4.23;;
5543;SDS011;2795;47.652;13.128;2023-03-23T08:56:49;11.53;;;4.53;;
5543;SDS011;2795;47.652;13.128;2023-03-23T08:59:16;10.83;;;4.03;;
5543;SDS011;2795;47.652;13.128;2023-03-23T09:01:41;10.87;;;4.50;;
5543;SDS011;2795;47.652;13.128;2023-03-23T09:04:07;13.93;;;4.43;;
5543;SDS011;2795;47.652;13.128;2023-03-23T09:06:34;12.93;;;4.53;;
5543;SDS011;2795;47.652;13.128;2023-03-23T09:09:01;9.37;;;3.80;;
5543;SDS011;2795;47.652;13.128;2023-03-23T09:11:35;12.13;;;4.33;;
5543;SDS011;2795;47.652;13.128;2023-03-23T09:14:01;12.73;;;4.30;;
5543;SDS011;2795;47.652;13.128;2023-03-23T09:16:28;17.60;;;4.00;;
5543;SDS011;2795;47.652;13.128;2023-03-23T09:18:53;10.60;;;4.00;;
5543;SDS011;2795;47.652;13.128;2023-03-23T09:21:20;19.97;;;4.20;;
5543;SDS011;2795;47.652;13.128;2023-03-23T09:23:46;9.60;;;3.90;;
5543;SDS011;2795;47.652;13.128;2023-03-23T09:26:13;15.10;;;3.90;;
5543;SDS011;2795;47.652;13.128;2023-03-23T09:28:39;10.33;;;3.63;;
5543;SDS011;2795;47.652;13.128;2023-03-23T09:31:05;10.90;;;3.60;;
5543;SDS011;2795;47.652;13.128;2023-03-23T09:33:30;7.87;;;3.60;;
5543;SDS011;2795;47.652;13.128;2023-03-23T09:35:59;10.03;;;3.90;;
5543;SDS011;2795;47.652;13.128;2023-03-23T09:38:24;15.10;;;4.47;;
5543;SDS011;2795;47.652;13.128;2023-03-23T09:46:46;16.27;;;4.27;;
5543;SDS011;2795;47.652;13.128;2023-03-23T09:49:23;9.07;;;3.60;;
5543;SDS011;2795;47.652;13.128;2023-03-23T09:51:56;12.20;;;3.77;;
5543;SDS011;2795;47.652;13.128;2023-03-23T09:54:29;11.90;;;4.13;;
5543;SDS011;2795;47.652;13.128;2023-03-23T09:56:58;16.37;;;3.97;;
5543;SDS011;2795;47.652;13.128;2023-03-23T09:59:26;15.30;;;4.50;;
5543;SDS011;2795;47.652;13.128;2023-03-23T10:01:58;15.40;;;4.43;;
5543;SDS011;2795;47.652;13.128;2023-03-23T10:04:33;16.47;;;4.60;;
5543;SDS011;2795;47.652;13.128;2023-03-23T10:07:09;14.90;;;4.47;;
5543;SDS011;2795;47.652;13.128;2023-03-23T10:09:40;14.00;;;4.47;;
5543;SDS011;2795;47.652;13.128;2023-03-23T10:12:41;11.20;;;4.20;;
5543;SDS011;2795;47.652;13.128;2023-03-23T10:15:29;8.67;;;3.63;;
5543;SDS011;2795;47.652;13.128;2023-03-23T10:18:01;14.17;;;4.37;;
5543;SDS011;2795;47.652;13.128;2023-03-23T10:23:00;15.93;;;4.50;;
5543;SDS011;2795;47.652;13.128;2023-03-23T10:25:32;9.03;;;3.60;;
5543;SDS011;2795;47.652;13.128;2023-03-23T10:30:33;13.93;;;4.60;;
5543;SDS011;2795;47.652;13.128;2023-03-23T10:33:08;7.30;;;3.40;;
5543;SDS011;2795;47.652;13.128;2023-03-23T10:35:43;10.60;;;3.90;;
5543;SDS011;2795;47.652;13.128;2023-03-23T10:38:21;10.00;;;3.53;;
5543;SDS011;2795;47.652;13.128;2023-03-23T10:40:52;14.57;;;4.43;;
5543;SDS011;2795;47.652;13.128;2023-03-23T10:43:21;8.83;;;3.87;;
5543;SDS011;2795;47.652;13.128;2023-03-23T10:45:50;15.70;;;4.53;;
5543;SDS011;2795;47.652;13.128;2023-03-23T10:48:25;15.67;;;4.43;;
5543;SDS011;2795;47.652;13.128;2023-03-23T10:50:56;14.50;;;4.43;;
5543;SDS011;2795;47.652;13.128;2023-03-23T10:53:34;12.40;;;3.87;;
5543;SDS011;2795;47.652;13.128;2023-03-23T10:56:02;17.17;;;4.63;;
5543;SDS011;2795;47.652;13.128;2023-03-23T10:58:30;12.97;;;4.53;;
5543;SDS011;2795;47.652;13.128;2023-03-23T11:01:00;9.20;;;3.80;;
5543;SDS011;2795;47.652;13.128;2023-03-23T11:06:10;11.90;;;4.27;;
5543;SDS011;2795;47.652;13.128;2023-03-23T11:08:46;10.73;;;4.40;;
5543;SDS011;2795;47.652;13.128;2023-03-23T11:11:16;15.40;;;4.40;;
5543;SDS011;2795;47.652;13.128;2023-03-23T11:13:42;11.30;;;3.87;;
5543;SDS011;2795;47.652;13.128;2023-03-23T11:16:09;10.33;;;3.90;;
5543;SDS011;2795;47.652;13.128;2023-03-23T11:18:40;10.87;;;4.10;;
5543;SDS011;2795;47.652;13.128;2023-03-23T11:21:11;13.53;;;4.17;;
5543;SDS011;2795;47.652;13.128;2023-03-23T11:23:41;11.90;;;4.00;;
5543;SDS011;2795;47.652;13.128;2023-03-23T11:29:01;12.57;;;3.70;;
5543;SDS011;2795;47.652;13.128;2023-03-23T11:31:32;11.87;;;3.80;;
5543;SDS011;2795;47.652;13.128;2023-03-23T11:34:03;10.23;;;3.43;;
5543;SDS011;2795;47.652;13.128;2023-03-23T11:36:32;10.33;;;3.70;;
5543;SDS011;2795;47.652;13.128;2023-03-23T11:38:59;12.27;;;3.67;;
5543;SDS011;2795;47.652;13.128;2023-03-23T11:41:30;15.53;;;5.10;;
5543;SDS011;2795;47.652;13.128;2023-03-23T11:44:03;21.20;;;8.40;;
5543;SDS011;2795;47.652;13.128;2023-03-23T11:46:36;17.87;;;4.50;;
5543;SDS011;2795;47.652;13.128;2023-03-23T11:49:15;11.70;;;3.67;;
5543;SDS011;2795;47.652;13.128;2023-03-23T11:51:47;10.77;;;4.10;;
5543;SDS011;2795;47.652;13.128;2023-03-23T11:56:56;16.47;;;4.20;;
5543;SDS011;2795;47.652;13.128;2023-03-23T12:02:00;18.70;;;4.27;;
5543;SDS011;2795;47.652;13.128;2023-03-23T12:07:35;9.33;;;3.60;;
5543;SDS011;2795;47.652;13.128;2023-03-23T12:12:59;12.93;;;3.97;;
5543;SDS011;2795;47.652;13.128;2023-03-23T12:18:29;9.37;;;3.47;;
5543;SDS011;2795;47.652;13.128;2023-03-23T12:23:48;9.30;;;3.77;;
5543;SDS011;2795;47.652;13.128;2023-03-23T12:26:31;12.57;;;3.83;;
5543;SDS011;2795;47.652;13.128;2023-03-23T12:32:08;13.57;;;4.10;;
5543;SDS011;2795;47.652;13.128;2023-03-23T12:34:56;13.70;;;4.20;;
5543;SDS011;2795;47.652;13.128;2023-03-23T12:40:31;10.97;;;3.27;;
5543;SDS011;2795;47.652;13.128;2023-03-23T12:43:06;16.60;;;3.97;;
5543;SDS011;2795;47.652;13.128;2023-03-23T12:48:41;13.13;;;3.90;;
5543;SDS011;2795;47.652;13.128;2023-03-23T12:51:11;10.53;;;3.20;;
5543;SDS011;2795;47.652;13.128;2023-03-23T12:53:52;11.20;;;3.60;;
5543;SDS011;2795;47.652;13.128;2023-03-23T12:58:55;13.83;;;3.60;;
5543;SDS011;2795;47.652;13.128;2023-03-23T13:01:41;10.30;;;3.73;;
5543;SDS011;2795;47.652;13.128;2023-03-23T13:06:43;9.50;;;3.50;;
5543;SDS011;2795;47.652;13.128;2023-03-23T13:09:16;10.57;;;3.47;;
5543;SDS011;2795;47.652;13.128;2023-03-23T13:11:47;7.60;;;3.17;;
5543;SDS011;2795;47.652;13.128;2023-03-23T13:22:17;14.47;;;4.13;;
5543;SDS011;2795;47.652;13.128;2023-03-23T13:24:51;7.80;;;3.00;;
5543;SDS011;2795;47.652;13.128;2023-03-23T13:27:23;14.33;;;4.10;;
5543;SDS011;2795;47.652;13.128;2023-03-23T13:29:53;12.57;;;3.77;;
5543;SDS011;2795;47.652;13.128;2023-03-23T13:32:19;11.80;;;3.50;;
5543;SDS011;2795;47.652;13.128;2023-03-23T13:34:46;13.33;;;4.07;;
5543;SDS011;2795;47.652;13.128;2023-03-23T13:42:30;13.37;;;3.37;;
5543;SDS011;2795;47.652;13.128;2023-03-23T13:47:44;12.63;;;3.63;;
5543;SDS011;2795;47.652;13.128;2023-03-23T13:50:23;10.80;;;3.33;;
5543;SDS011;2795;47.652;13.128;2023-03-23T13:52:53;8.40;;;3.17;;
5543;SDS011;2795;47.652;13.128;2023-03-23T13:57:52;7.97;;;3.13;;
5543;SDS011;2795;47.652;13.128;2023-03-23T14:10:44;18.13;;;4.60;;
5543;SDS011;2795;47.652;13.128;2023-03-23T14:13:28;9.27;;;3.30;;
5543;SDS011;2795;47.652;13.128;2023-03-23T14:18:23;10.90;;;3.60;;
5543;SDS011;2795;47.652;13.128;2023-03-23T14:20:52;18.30;;;3.70;;
5543;SDS011;2795;47.652;13.128;2023-03-23T14:23:18;9.37;;;3.50;;
5543;SDS011;2795;47.652;13.128;2023-03-23T14:25:44;9.53;;;3.17;;
5543;SDS011;2795;47.652;13.128;2023-03-23T14:28:20;8.23;;;3.07;;
5543;SDS011;2795;47.652;13.128;2023-03-23T14:30:47;16.57;;;4.47;;
5543;SDS011;2795;47.652;13.128;2023-03-23T14:33:14;14.53;;;4.17;;
5543;SDS011;2795;47.652;13.128;2023-03-23T14:35:41;14.53;;;3.93;;
5543;SDS011;2795;47.652;13.128;2023-03-23T14:38:21;16.90;;;4.60;;
5543;SDS011;2795;47.652;13.128;2023-03-23T14:40:51;10.00;;;3.47;;
5543;SDS011;2795;47.652;13.128;2023-03-23T14:43:17;9.80;;;3.43;;
5543;SDS011;2795;47.652;13.128;2023-03-23T14:45:45;13.03;;;3.97;;
5543;SDS011;2795;47.652;13.128;2023-03-23T14:48:17;8.40;;;3.53;;
5543;SDS011;2795;47.652;13.128;2023-03-23T14:50:55;12.60;;;3.70;;
5543;SDS011;2795;47.652;13.128;2023-03-23T14:53:33;10.83;;;3.97;;
5543;SDS011;2795;47.652;13.128;2023-03-23T14:56:14;8.40;;;3.47;;
5543;SDS011;2795;47.652;13.128;2023-03-23T14:58:44;14.17;;;4.10;;
5543;SDS011;2795;47.652;13.128;2023-03-23T15:01:12;13.27;;;4.27;;
5543;SDS011;2795;47.652;13.128;2023-03-23T15:03:45;19.47;;;4.87;;
5543;SDS011;2795;47.652;13.128;2023-03-23T15:06:34;11.30;;;3.83;;
5543;SDS011;2795;47.652;13.128;2023-03-23T15:09:02;12.03;;;3.83;;
5543;SDS011;2795;47.652;13.128;2023-03-23T15:11:36;11.20;;;3.93;;
5543;SDS011;2795;47.652;13.128;2023-03-23T15:14:09;7.87;;;3.10;;
5543;SDS011;2795;47.652;13.128;2023-03-23T15:16:39;16.63;;;4.93;;
5543;SDS011;2795;47.652;13.128;2023-03-23T15:19:17;9.37;;;3.57;;
5543;SDS011;2795;47.652;13.128;2023-03-23T15:21:49;11.43;;;3.73;;
5543;SDS011;2795;47.652;13.128;2023-03-23T15:24:41;10.20;;;4.13;;
5543;SDS011;2795;47.652;13.128;2023-03-23T15:29:45;20.07;;;4.67;;
5543;SDS011;2795;47.652;13.128;2023-03-23T15:34:53;12.80;;;4.80;;
5543;SDS011;2795;47.652;13.128;2023-03-23T15:39:51;10.50;;;3.90;;
5543;SDS011;2795;47.652;13.128;2023-03-23T15:42:21;16.17;;;4.40;;
5543;SDS011;2795;47.652;13.128;2023-03-23T15:44:58;12.87;;;4.17;;
5543;SDS011;2795;47.652;13.128;2023-03-23T15:47:34;12.63;;;4.40;;
5543;SDS011;2795;47.652;13.128;2023-03-23T15:52:36;11.47;;;4.60;;
5543;SDS011;2795;47.652;13.128;2023-03-23T15:55:02;10.83;;;4.37;;
5543;SDS011;2795;47.652;13.128;2023-03-23T15:57:28;10.40;;;4.30;;
5543;SDS011;2795;47.652;13.128;2023-03-23T15:59:54;18.33;;;4.47;;
5543;SDS011;2795;47.652;13.128;2023-03-23T16:02:24;16.87;;;5.00;;
5543;SDS011;2795;47.652;13.128;2023-03-23T16:04:51;13.53;;;4.27;;
5543;SDS011;2795;47.652;13.128;2023-03-23T16:07:22;12.40;;;4.57;;
5543;SDS011;2795;47.652;13.128;2023-03-23T16:09:48;14.17;;;4.67;;
5543;SDS011;2795;47.652;13.128;2023-03-23T16:12:15;12.70;;;4.47;;
5543;SDS011;2795;47.652;13.128;2023-03-23T16:14:43;18.17;;;4.87;;
5543;SDS011;2795;47.652;13.128;2023-03-23T16:17:10;13.53;;;5.20;;
5543;SDS011;2795;47.652;13.128;2023-03-23T16:19:41;89.93;;;35.43;;
5543;SDS011;2795;47.652;13.128;2023-03-23T16:22:08;132.97;;;61.07;;
5543;SDS011;2795;47.652;13.128;2023-03-23T16:24:35;59.30;;;29.13;;
5543;SDS011;2795;47.652;13.128;2023-03-23T16:27:01;29.47;;;14.43;;
5543;SDS011;2795;47.652;13.128;2023-03-23T16:29:28;16.13;;;5.33;;
5543;SDS011;2795;47.652;13.128;2023-03-23T16:31:59;19.43;;;8.47;;
5543;SDS011;2795;47.652;13.128;2023-03-23T16:34:26;14.60;;;6.20;;
5543;SDS011;2795;47.652;13.128;2023-03-23T16:36:55;29.00;;;11.77;;
5543;SDS011;2795;47.652;13.128;2023-03-23T16:39:22;34.70;;;16.57;;
5543;SDS011;2795;47.652;13.128;2023-03-23T16:41:48;20.63;;;8.57;;
5543;SDS011;2795;47.652;13.128;2023-03-23T16:44:15;27.80;;;10.87;;
5543;SDS011;2795;47.652;13.128;2023-03-23T16:46:41;27.43;;;11.20;;
5543;SDS011;2795;47.652;13.128;2023-03-23T16:49:08;18.10;;;6.07;;
5543;SDS011;2795;47.652;13.128;2023-03-23T16:51:35;15.93;;;8.40;;
5543;SDS011;2795;47.652;13.128;2023-03-23T16:54:02;17.20;;;6.97;;
5543;SDS011;2795;47.652;13.128;2023-03-23T16:56:29;21.37;;;10.17;;
5543;SDS011;2795;47.652;13.128;2023-03-23T16:58:56;13.20;;;5.63;;